Terminal Aerodrome Forecast
Issued by NWS Cleveland, OH

Home | Current Version | Previous Version | Text Only | Print | Product List | Glossary On
Versions: 1 2 3 4 5 6 7 8 9 10 11 12 13 14 15 16 17 18 19 20 21 22
000
FTUS41 KCLE 161700
TAFCAK
TAF
KCAK 161739Z 1618/1718 34006KT P6SM BKN035
     FM162000 34004KT P6SM BKN045
     FM162200 36004KT P6SM SCT045
     FM170100 VRB02KT P6SM SKC
     FM170800 VRB02KT 3SM BR SKC
      TEMPO 1711/1713 3/4SM BR BKN002
     FM171400 24006KT P6SM SCT035=

USA.gov is the U.S. government's official web portal to all federal, state and local government web resources and services.